Time;durP1;ratioP1;P1;durP2;ratioP2;P2;SDS_P1;SDS_P2;PMS_P1;PMS_P2;Temp;Humidity;BMP_temperature;BMP_pressure;BME280_temperature;BME280_humidity;BME280_pressure;Samples;Min_cycle;Max_cycle;Signal;HPM_P1;HPM_P2
2024/03/19 00:00:49;;;;;;;5.43;3.00;;;-1.40;99.90;-1.90;101042.00;;;;4877519;28;87534;-64
2024/03/19 00:03:15;;;;;;;5.07;4.07;;;-1.40;99.90;-1.90;101047.00;;;;4875759;28;88282;-65
2024/03/19 00:05:42;;;;;;;7.00;3.90;;;-1.50;99.90;-1.90;101043.00;;;;4877937;28;88046;-65
2024/03/19 00:08:07;;;;;;;3.47;3.13;;;-1.50;99.90;-2.00;101035.00;;;;4881123;28;88771;-64
2024/03/19 00:10:33;;;;;;;6.77;4.40;;;-1.50;99.90;-2.00;101047.00;;;;4879814;28;108808;-64
2024/03/19 00:12:59;;;;;;;5.53;3.23;;;-1.50;99.90;-2.00;101044.00;;;;4879156;28;117402;-65
2024/03/19 00:15:24;;;;;;;5.77;3.50;;;-1.50;99.90;-2.00;101039.00;;;;4888093;28;87945;-64
2024/03/19 00:17:52;;;;;;;6.50;3.47;;;-1.50;99.90;-2.00;101050.00;;;;4879680;28;108925;-64
2024/03/19 00:20:21;;;;;;;6.90;3.53;;;-1.50;99.90;-2.10;101050.00;;;;4881287;28;87845;-64
2024/03/19 00:22:48;;;;;;;3.20;2.90;;;-1.50;99.90;-2.10;101048.00;;;;4879028;28;88301;-65
2024/03/19 00:25:14;;;;;;;5.90;4.07;;;-1.60;99.90;-2.10;101058.00;;;;4884340;28;89079;-64
2024/03/19 00:27:40;;;;;;;4.80;3.67;;;-1.60;99.90;-2.10;101044.00;;;;4876167;28;87871;-65
2024/03/19 00:30:10;;;;;;;6.70;2.90;;;-1.60;99.90;-2.10;101046.00;;;;4882247;28;89110;-65
2024/03/19 00:32:37;;;;;;;6.97;4.00;;;-1.70;99.90;-2.20;101043.00;;;;4885373;28;89561;-66
2024/03/19 00:35:08;;;;;;;5.30;3.20;;;-1.70;99.90;-2.20;101044.00;;;;4874890;28;88946;-65
2024/03/19 00:37:37;;;;;;;5.43;3.67;;;-1.90;99.90;-2.20;101044.00;;;;4878187;28;89322;-65
2024/03/19 00:40:04;;;;;;;7.87;3.20;;;-1.00;99.90;-2.20;101044.00;;;;4879930;28;88010;-65
2024/03/19 00:42:31;;;;;;;4.70;3.30;;;-1.70;99.90;-2.20;101037.00;;;;4878657;28;88197;-65
2024/03/19 00:44:58;;;;;;;4.70;3.40;;;-1.80;99.90;-2.20;101035.00;;;;4882590;28;88063;-65
2024/03/19 00:47:25;;;;;;;5.40;3.37;;;-1.70;99.90;-2.20;101046.00;;;;4879280;28;87957;-65
2024/03/19 00:49:51;;;;;;;5.40;3.53;;;-1.80;99.90;-2.20;101037.00;;;;4881104;28;87031;-65
2024/03/19 00:52:16;;;;;;;6.47;4.90;;;-1.80;99.90;-2.20;101044.00;;;;4882345;28;116639;-65
2024/03/19 00:54:44;;;;;;;5.90;3.53;;;-1.80;99.90;-2.30;101038.00;;;;4880355;28;118111;-65
2024/03/19 00:57:10;;;;;;;3.80;3.40;;;-1.80;99.90;-2.20;101032.00;;;;4876954;28;88786;-64
2024/03/19 00:59:35;;;;;;;7.23;3.90;;;-1.80;99.90;-2.30;101028.00;;;;4883835;28;88161;-64
2024/03/19 01:02:01;;;;;;;9.07;4.23;;;-1.80;99.90;-2.20;101036.00;;;;4879072;28;116286;-65
2024/03/19 01:04:27;;;;;;;5.33;3.67;;;-1.80;99.90;-2.30;101033.00;;;;4881157;28;116543;-64
2024/03/19 01:06:52;;;;;;;5.57;4.43;;;-1.80;99.90;-2.30;101034.00;;;;4879352;28;106510;-65
2024/03/19 01:09:18;;;;;;;5.90;3.93;;;-1.80;99.90;-2.30;101037.00;;;;4875747;28;109191;-64
2024/03/19 01:11:44;;;;;;;6.50;3.47;;;-1.80;99.90;-2.30;101034.00;;;;4876778;28;89498;-64
2024/03/19 01:14:10;;;;;;;5.23;3.73;;;-1.70;99.90;-2.30;101033.00;;;;4881064;28;117323;-65
2024/03/19 01:16:36;;;;;;;5.27;3.77;;;-1.80;99.90;-2.30;101023.00;;;;4879800;28;87903;-65
2024/03/19 01:19:02;;;;;;;6.70;4.23;;;-1.80;99.90;-2.30;101039.00;;;;4879252;28;108721;-65
2024/03/19 01:21:28;;;;;;;4.97;3.90;;;-1.80;99.90;-2.30;101029.00;;;;4879553;28;89802;-65
2024/03/19 01:23:53;;;;;;;6.10;4.03;;;-1.80;99.90;-2.30;101022.00;;;;4876788;28;119383;-65
2024/03/19 01:26:19;;;;;;;4.83;3.40;;;-1.90;99.90;-2.30;101024.00;;;;4879794;28;88153;-65
2024/03/19 01:28:45;;;;;;;6.23;4.33;;;-1.90;99.90;-2.30;101032.00;;;;4878206;28;108005;-65
2024/03/19 01:31:11;;;;;;;8.20;4.57;;;-1.80;99.90;-2.40;101032.00;;;;4879397;28;87945;-65
2024/03/19 01:33:37;;;;;;;8.90;4.60;;;-2.00;99.90;-2.40;101022.00;;;;4879768;28;88262;-65
2024/03/19 01:36:03;;;;;;;4.97;3.20;;;-1.90;99.90;-2.40;101024.00;;;;4877716;28;96206;-65
2024/03/19 01:38:29;;;;;;;7.63;3.77;;;-1.90;99.90;-2.40;101038.00;;;;4879047;28;87338;-66
2024/03/19 01:40:54;;;;;;;4.03;3.63;;;-2.00;99.90;-2.40;101030.00;;;;4878645;28;88742;-65
2024/03/19 01:43:21;;;;;;;6.60;4.00;;;-1.90;99.90;-2.40;101023.00;;;;4878579;28;116528;-65
2024/03/19 01:46:25;;;;;;;7.47;4.20;;;-1.90;99.90;-2.50;101025.00;;;;4880570;28;88655;-65
2024/03/19 01:48:52;;;;;;;7.10;4.47;;;-2.00;99.90;-2.50;101030.00;;;;4888784;28;87722;-66
2024/03/19 01:51:19;;;;;;;7.73;3.60;;;-2.00;99.90;-2.50;101018.00;;;;4881764;28;88604;-65
2024/03/19 01:53:46;;;;;;;8.73;4.00;;;-2.00;99.90;-2.50;101020.00;;;;4882821;28;88080;-65
2024/03/19 01:56:12;;;;;;;4.80;3.83;;;-2.00;99.90;-2.50;101018.00;;;;4880734;28;88368;-65
2024/03/19 01:58:38;;;;;;;3.90;3.43;;;-2.00;99.90;-2.50;101011.00;;;;4877738;28;87917;-65
2024/03/19 02:01:04;;;;;;;6.57;4.57;;;-3.10;99.90;-2.50;101023.00;;;;4878160;28;89632;-65
2024/03/19 02:03:31;;;;;;;6.50;4.43;;;-2.00;99.90;-2.50;101018.00;;;;4879031;28;117625;-66
2024/03/19 02:05:57;;;;;;;7.40;4.57;;;-1.30;99.90;-2.50;101015.00;;;;4880630;28;109578;-65
2024/03/19 02:08:23;;;;;;;10.23;4.00;;;-2.10;99.90;-2.60;101013.00;;;;4877955;28;106413;-65
2024/03/19 02:10:49;;;;;;;10.47;4.23;;;-2.00;99.90;-2.60;101010.00;;;;4876929;28;89320;-65
2024/03/19 02:13:15;;;;;;;7.93;4.77;;;-2.10;99.90;-2.60;101017.00;;;;4876385;28;89859;-65
2024/03/19 02:15:42;;;;;;;6.50;4.60;;;-2.10;99.90;-2.60;101015.00;;;;4877670;28;110357;-66
2024/03/19 02:18:08;;;;;;;5.77;4.53;;;-2.10;99.90;-2.60;101024.00;;;;4883803;28;87920;-65
2024/03/19 02:20:33;;;;;;;6.37;4.73;;;-2.10;99.90;-2.60;101021.00;;;;4876101;28;101330;-65
2024/03/19 02:22:59;;;;;;;6.73;4.33;;;-2.20;99.90;-2.60;101028.00;;;;4877898;28;113002;-65
2024/03/19 02:25:25;;;;;;;9.97;4.40;;;-2.10;99.90;-2.60;101029.00;;;;4879244;28;110959;-65
2024/03/19 02:27:50;;;;;;;11.20;4.83;;;-2.10;99.90;-2.60;101031.00;;;;4877985;28;108723;-65
2024/03/19 02:30:16;;;;;;;7.90;4.87;;;-2.20;99.90;-2.60;101024.00;;;;4877448;28;116601;-65
2024/03/19 02:32:42;;;;;;;7.27;4.10;;;-2.10;99.90;-2.60;101015.00;;;;4878581;28;88216;-65
2024/03/19 02:35:08;;;;;;;9.23;4.97;;;-2.20;99.90;-2.70;101019.00;;;;4876388;28;109983;-65
2024/03/19 02:37:33;;;;;;;7.03;4.50;;;-2.20;99.90;-2.70;101017.00;;;;4879147;28;95717;-65
2024/03/19 02:40:00;;;;;;;13.97;4.60;;;-2.30;99.90;-2.70;101024.00;;;;4876766;28;116055;-65
2024/03/19 02:42:26;;;;;;;9.40;5.50;;;-2.30;99.90;-2.70;101021.00;;;;4879393;28;88569;-66
2024/03/19 02:44:52;;;;;;;6.90;4.50;;;-2.30;99.90;-2.70;101010.00;;;;4879983;28;88311;-65
2024/03/19 02:47:17;;;;;;;6.70;4.57;;;-2.20;99.90;-2.70;101012.00;;;;4879782;28;108967;-65
2024/03/19 02:49:44;;;;;;;7.63;4.37;;;-2.30;99.90;-2.70;101025.00;;;;4875802;28;117867;-66
2024/03/19 02:52:10;;;;;;;8.43;4.70;;;-2.30;99.90;-2.70;101015.00;;;;4878440;28;88835;-65
2024/03/19 02:54:37;;;;;;;10.00;4.20;;;-2.30;99.90;-2.70;101020.00;;;;4881330;28;87671;-65
2024/03/19 02:57:03;;;;;;;10.20;5.67;;;-2.20;99.90;-2.70;101027.00;;;;4877315;28;100800;-65
2024/03/19 02:59:28;;;;;;;9.33;5.27;;;-2.20;99.90;-2.70;101021.00;;;;4877650;28;111484;-65
2024/03/19 03:01:56;;;;;;;6.27;4.70;;;-2.10;99.90;-2.80;101017.00;;;;4877722;28;117255;-65
2024/03/19 03:04:22;;;;;;;9.20;4.97;;;-2.30;99.90;-2.80;101031.00;;;;4877609;28;87820;-65
2024/03/19 03:06:48;;;;;;;7.37;5.47;;;-2.30;99.90;-2.80;101020.00;;;;4876864;28;98657;-65
2024/03/19 03:09:14;;;;;;;14.13;5.93;;;-2.30;99.90;-2.80;101031.00;;;;4872334;28;117887;-65
2024/03/19 03:11:39;;;;;;;6.07;4.60;;;-2.40;99.90;-2.70;101023.00;;;;4878159;28;88707;-65
2024/03/19 03:14:05;;;;;;;9.97;5.50;;;-2.20;99.90;-2.80;101037.00;;;;4890115;28;110276;-66
2024/03/19 03:16:31;;;;;;;6.83;4.83;;;-2.30;99.90;-2.80;101028.00;;;;4878701;28;88372;-65
2024/03/19 03:18:56;;;;;;;7.90;5.53;;;-2.30;99.90;-2.80;101024.00;;;;4877906;28;117071;-65
2024/03/19 03:21:22;;;;;;;9.80;6.07;;;-3.40;99.90;-2.80;101035.00;;;;4877465;28;88327;-65
2024/03/19 03:23:48;;;;;;;8.77;5.77;;;-2.30;99.90;-2.80;101027.00;;;;4877411;28;110338;-65
2024/03/19 03:26:14;;;;;;;7.10;5.17;;;-2.30;99.90;-2.80;101028.00;;;;4877119;28;88158;-65
2024/03/19 03:28:40;;;;;;;8.03;4.83;;;-2.30;99.90;-2.90;101027.00;;;;4878931;28;109901;-65
2024/03/19 03:31:06;;;;;;;7.37;5.27;;;-2.30;99.90;-2.90;101043.00;;;;4878206;28;87829;-65
2024/03/19 03:33:31;;;;;;;10.03;5.90;;;-2.40;99.90;-2.90;101035.00;;;;4878251;28;87838;-66
2024/03/19 03:35:58;;;;;;;8.63;5.73;;;-2.40;99.90;-2.90;101032.00;;;;4880448;28;106985;-66
2024/03/19 03:38:24;;;;;;;10.53;5.97;;;-2.40;99.90;-3.00;101024.00;;;;4883332;28;116672;-66
2024/03/19 03:40:53;;;;;;;10.07;5.70;;;-2.40;99.90;-3.00;101019.00;;;;4876293;28;87838;-65
2024/03/19 03:43:20;;;;;;;9.07;5.47;;;-2.50;99.90;-3.10;101024.00;;;;4882798;28;87945;-66
2024/03/19 03:45:46;;;;;;;7.67;5.40;;;-2.60;99.90;-3.10;101030.00;;;;4876088;28;87790;-66
2024/03/19 03:48:11;;;;;;;7.33;5.53;;;-2.60;99.90;-3.10;101030.00;;;;4883266;28;97543;-66
2024/03/19 03:50:37;;;;;;;12.53;6.03;;;-2.60;99.90;-3.20;101030.00;;;;4883399;28;118045;-66
2024/03/19 03:53:03;;;;;;;12.63;6.80;;;-2.70;99.90;-3.20;101034.00;;;;4884187;28;109722;-66
2024/03/19 03:55:28;;;;;;;10.63;5.90;;;-2.70;99.90;-3.20;101036.00;;;;4880274;28;87914;-66
2024/03/19 03:57:54;;;;;;;6.60;4.87;;;-2.70;99.90;-3.20;101034.00;;;;4879215;28;115755;-66
2024/03/19 04:00:20;;;;;;;7.73;4.93;;;-2.60;99.90;-3.20;101034.00;;;;4882086;28;117485;-66
2024/03/19 04:02:47;;;;;;;12.63;5.93;;;-2.70;99.90;-3.20;101039.00;;;;4879190;28;110273;-66
2024/03/19 04:05:13;;;;;;;9.40;5.10;;;-2.70;99.90;-3.30;101033.00;;;;4880995;28;86904;-66
2024/03/19 04:07:42;;;;;;;12.67;6.03;;;-2.80;99.90;-3.30;101028.00;;;;4881525;28;108007;-66
2024/03/19 04:10:10;;;;;;;7.07;4.73;;;-2.80;99.90;-3.30;101034.00;;;;4879967;28;89548;-66
2024/03/19 04:12:36;;;;;;;9.97;5.93;;;-2.80;99.90;-3.40;101037.00;;;;4874776;28;89114;-66
2024/03/19 04:15:08;;;;;;;11.97;5.30;;;-2.80;99.90;-3.40;101032.00;;;;4880160;28;101484;-65
2024/03/19 04:17:34;;;;;;;8.93;6.43;;;-2.70;99.90;-3.40;101040.00;;;;4882814;28;87983;-66
2024/03/19 04:20:01;;;;;;;6.57;5.00;;;-2.80;99.90;-3.40;101028.00;;;;4879119;28;89089;-66
2024/03/19 04:22:27;;;;;;;7.57;5.10;;;-1.80;99.90;-3.40;101039.00;;;;4881528;28;87726;-66
2024/03/19 04:24:53;;;;;;;8.57;5.40;;;-2.90;99.90;-3.50;101038.00;;;;4879576;28;107935;-66
2024/03/19 04:27:18;;;;;;;10.67;6.23;;;-2.90;99.90;-3.50;101047.00;;;;4880181;28;88502;-66
2024/03/19 04:29:47;;;;;;;9.73;6.10;;;-2.40;99.90;-3.50;101045.00;;;;4875667;28;116706;-66
2024/03/19 04:32:12;;;;;;;9.40;5.87;;;-2.90;99.90;-3.50;101040.00;;;;4880404;28;88069;-66
2024/03/19 04:34:38;;;;;;;11.03;6.20;;;-3.00;99.90;-3.50;101040.00;;;;4879733;28;107696;-66
2024/03/19 04:37:04;;;;;;;11.73;6.93;;;-2.90;99.90;-3.50;101038.00;;;;4875454;28;91092;-66
2024/03/19 04:39:29;;;;;;;12.43;7.00;;;-2.90;99.90;-3.60;101041.00;;;;4875127;28;118661;-66
2024/03/19 04:41:55;;;;;;;11.57;6.73;;;-3.00;99.90;-3.60;101032.00;;;;4874214;28;110277;-67
2024/03/19 04:44:21;;;;;;;11.33;6.20;;;-3.00;99.90;-3.50;101030.00;;;;4874958;28;108933;-66
2024/03/19 04:46:47;;;;;;;10.63;6.00;;;-3.00;99.90;-3.50;101037.00;;;;4874671;28;117945;-66
2024/03/19 04:49:12;;;;;;;10.37;6.10;;;-3.00;99.90;-3.50;101036.00;;;;4881110;28;115331;-66
2024/03/19 04:51:38;;;;;;;12.07;6.53;;;-3.00;99.90;-3.50;101049.00;;;;4876138;28;109627;-66
2024/03/19 04:54:04;;;;;;;13.47;6.77;;;-3.00;99.90;-3.50;101042.00;;;;4878606;28;108479;-66
2024/03/19 04:56:29;;;;;;;13.37;7.80;;;-3.00;99.90;-3.50;101043.00;;;;4877191;28;114970;-66
2024/03/19 04:58:55;;;;;;;11.30;6.83;;;-3.00;99.90;-3.50;101038.00;;;;4876460;28;105082;-66
2024/03/19 05:01:20;;;;;;;10.10;6.17;;;-2.50;99.90;-3.50;101036.00;;;;4873861;28;110744;-66
2024/03/19 05:03:46;;;;;;;10.67;6.77;;;-3.00;99.90;-3.50;101051.00;;;;4877836;28;109070;-66
2024/03/19 05:06:12;;;;;;;9.37;6.30;;;-3.10;99.90;-3.60;101043.00;;;;4880822;28;88252;-66
2024/03/19 05:08:40;;;;;;;11.63;6.87;;;-2.90;99.90;-3.50;101052.00;;;;4876078;28;104975;-66
2024/03/19 05:11:05;;;;;;;15.17;7.77;;;-3.00;99.90;-3.50;101049.00;;;;4876431;28;99042;-66
2024/03/19 05:13:31;;;;;;;10.33;6.73;;;-3.00;99.90;-3.50;101055.00;;;;4882016;28;108357;-66
2024/03/19 05:15:57;;;;;;;12.40;6.70;;;-3.10;99.90;-3.50;101043.00;;;;4882310;28;88950;-66
2024/03/19 05:18:23;;;;;;;16.00;7.07;;;-3.00;99.90;-3.50;101041.00;;;;4880668;28;87480;-66
2024/03/19 05:20:49;;;;;;;15.10;7.47;;;-3.10;99.90;-3.60;101052.00;;;;4879154;28;87833;-66
2024/03/19 05:23:15;;;;;;;14.13;6.90;;;-3.00;99.90;-3.60;101044.00;;;;4880070;28;108555;-66
2024/03/19 05:25:43;;;;;;;13.07;6.47;;;-2.90;99.90;-3.50;101054.00;;;;4878846;28;104916;-66
2024/03/19 05:28:10;;;;;;;11.37;6.60;;;-3.10;99.90;-3.50;101059.00;;;;4879856;28;118383;-66
2024/03/19 05:30:36;;;;;;;11.67;6.30;;;-3.00;99.90;-3.50;101066.00;;;;4878023;28;102366;-67
2024/03/19 05:33:02;;;;;;;12.10;7.63;;;-3.00;99.90;-3.50;101055.00;;;;4879209;28;87604;-66
2024/03/19 05:35:27;;;;;;;12.17;7.80;;;-2.90;99.90;-3.40;101049.00;;;;4838506;28;1103894;-65
2024/03/19 05:37:53;;;;;;;13.00;7.20;;;-2.90;99.90;-3.30;101083.00;;;;4875082;28;88307;-65
2024/03/19 05:40:20;;;;;;;15.20;7.43;;;-2.90;99.90;-3.20;101055.00;;;;4874964;28;110955;-66
2024/03/19 05:42:46;;;;;;;12.83;7.47;;;-2.70;99.90;-3.10;101067.00;;;;4879416;28;87133;-66
2024/03/19 05:45:12;;;;;;;12.53;7.07;;;-2.70;99.90;-3.00;101077.00;;;;4879924;28;89029;-66
2024/03/19 05:47:39;;;;;;;13.47;8.53;;;-2.50;99.90;-2.90;101066.00;;;;4882220;28;88868;-66
2024/03/19 05:50:08;;;;;;;12.60;6.67;;;-2.50;99.90;-2.80;101081.00;;;;4877706;28;97385;-66
2024/03/19 05:52:33;;;;;;;12.17;7.57;;;-2.40;99.90;-2.60;101079.00;;;;4879269;28;88639;-66
2024/03/19 05:54:59;;;;;;;14.27;7.33;;;-2.20;99.90;-2.50;101067.00;;;;4880702;28;112771;-66
2024/03/19 05:57:25;;;;;;;11.80;7.00;;;-2.10;99.90;-2.40;101073.00;;;;4876256;28;115857;-66
2024/03/19 05:59:50;;;;;;;13.87;7.10;;;-2.10;99.90;-2.20;101075.00;;;;4879927;28;110588;-66
2024/03/19 06:02:16;;;;;;;14.67;7.60;;;-1.80;99.90;-2.10;101078.00;;;;4882099;28;88798;-66
2024/03/19 06:04:42;;;;;;;11.40;7.83;;;-1.70;99.90;-1.90;101077.00;;;;4875906;28;116246;-66
2024/03/19 06:07:07;;;;;;;12.23;7.53;;;-1.50;99.90;-1.80;101076.00;;;;4882753;28;116697;-66
2024/03/19 06:09:33;;;;;;;12.53;7.77;;;-1.50;99.90;-1.60;101066.00;;;;4883796;28;109711;-66
2024/03/19 06:11:59;;;;;;;12.80;7.50;;;-1.30;99.90;-1.40;101074.00;;;;4873368;28;109694;-66
2024/03/19 06:14:24;;;;;;;10.70;6.63;;;-1.00;99.90;-1.20;101075.00;;;;4881536;28;117650;-66
2024/03/19 06:16:50;;;;;;;8.80;6.53;;;-1.00;99.90;-1.00;101065.00;;;;4877938;28;107331;-66
2024/03/19 06:19:19;;;;;;;12.37;7.00;;;-0.80;99.90;-0.90;101063.00;;;;4879216;28;110202;-65
2024/03/19 06:21:45;;;;;;;8.27;6.37;;;-0.60;99.90;-0.70;101079.00;;;;4878325;28;89046;-65
2024/03/19 06:24:11;;;;;;;8.17;6.07;;;-0.30;99.90;-0.50;101077.00;;;;4878803;28;88144;-66
2024/03/19 06:26:38;;;;;;;12.33;6.17;;;-0.30;99.90;-0.40;101074.00;;;;4883435;28;104739;-65
2024/03/19 06:29:04;;;;;;;8.07;5.80;;;0.00;99.90;-0.30;101073.00;;;;4882838;28;90011;-65
2024/03/19 06:31:33;;;;;;;10.67;5.93;;;0.00;99.90;-0.10;101072.00;;;;4880273;28;108477;-65
2024/03/19 06:33:58;;;;;;;8.50;5.13;;;0.20;99.90;0.00;101064.00;;;;4879732;28;118232;-66
2024/03/19 06:36:24;;;;;;;6.57;5.43;;;0.30;99.90;0.20;101082.00;;;;4878316;28;117547;-65
2024/03/19 06:38:50;;;;;;;8.63;5.50;;;0.50;99.90;0.40;101081.00;;;;4877275;28;110557;-66
2024/03/19 06:41:16;;;;;;;7.10;4.83;;;0.70;99.90;0.60;101082.00;;;;4878513;28;95983;-65
2024/03/19 06:43:42;;;;;;;6.80;5.23;;;0.80;99.90;0.80;101088.00;;;;4878664;28;105996;-65
2024/03/19 06:46:07;;;;;;;5.80;4.53;;;1.10;99.90;1.00;101090.00;;;;4882335;28;90893;-66
2024/03/19 06:48:34;;;;;;;6.87;5.10;;;1.20;99.90;1.20;101107.00;;;;4876036;28;109968;-66
2024/03/19 06:51:00;;;;;;;13.10;6.37;;;1.50;99.90;1.40;101103.00;;;;4880938;28;88012;-66
2024/03/19 06:53:27;;;;;;;10.60;5.67;;;1.70;99.90;1.70;101100.00;;;;4875490;28;92191;-66
2024/03/19 06:55:54;;;;;;;9.20;6.03;;;2.40;99.90;1.90;101107.00;;;;4882359;28;87361;-65
2024/03/19 06:58:20;;;;;;;5.87;4.67;;;3.10;99.90;2.10;101109.00;;;;4877141;28;88048;-65
2024/03/19 07:00:47;;;;;;;8.83;5.43;;;2.30;99.90;2.30;101108.00;;;;4880720;28;87930;-65
2024/03/19 07:03:13;;;;;;;9.63;6.07;;;2.40;99.90;2.40;101113.00;;;;4879861;28;89955;-65
2024/03/19 07:05:38;;;;;;;9.80;5.33;;;2.60;99.90;2.60;101113.00;;;;4877665;28;88675;-65
2024/03/19 07:08:05;;;;;;;6.90;4.37;;;2.90;99.90;2.90;101123.00;;;;4881636;28;109415;-66
2024/03/19 07:10:30;;;;;;;7.73;5.70;;;3.10;99.90;3.20;101127.00;;;;4877451;28;92039;-65
2024/03/19 07:12:56;;;;;;;10.23;5.27;;;3.40;99.90;3.50;101133.00;;;;4880190;28;97040;-66
2024/03/19 07:15:22;;;;;;;8.20;5.57;;;3.60;99.90;3.80;101122.00;;;;4875470;28;115764;-66
2024/03/19 07:17:52;;;;;;;10.77;5.47;;;4.20;99.90;4.10;101128.00;;;;4881880;28;88167;-65
2024/03/19 07:20:18;;;;;;;7.23;4.97;;;4.20;99.90;4.40;101131.00;;;;4882686;28;87252;-66
2024/03/19 07:22:46;;;;;;;7.53;5.47;;;4.50;99.90;4.60;101137.00;;;;4882318;28;89040;-66
2024/03/19 07:25:13;;;;;;;10.50;4.40;;;4.60;99.90;4.90;101140.00;;;;4879111;28;87621;-66
2024/03/19 07:27:41;;;;;;;10.17;5.80;;;5.90;99.90;5.10;101132.00;;;;4879158;28;88962;-65
2024/03/19 07:30:12;;;;;;;11.60;4.27;;;5.90;99.90;5.30;101140.00;;;;4880392;28;88219;-66
2024/03/19 07:32:39;;;;;;;7.77;4.33;;;5.40;99.90;5.60;101141.00;;;;4877122;28;88910;-66
2024/03/19 07:35:05;;;;;;;8.23;5.37;;;6.00;99.90;5.90;101146.00;;;;4877783;28;93515;-66
2024/03/19 07:37:41;;;;;;;7.30;5.63;;;6.00;99.90;6.20;101152.00;;;;4881848;28;88193;-65
2024/03/19 07:40:09;;;;;;;11.53;5.33;;;6.60;99.90;6.60;101140.00;;;;4884221;28;88102;-66
2024/03/19 07:42:39;;;;;;;7.83;4.47;;;6.60;99.90;6.90;101146.00;;;;4879778;28;88672;-66
2024/03/19 07:45:06;;;;;;;6.63;4.13;;;7.50;99.90;7.20;101155.00;;;;4882996;28;99342;-66
2024/03/19 07:47:35;;;;;;;7.37;5.00;;;7.20;99.90;7.40;101147.00;;;;4887740;28;87630;-66
2024/03/19 07:50:07;;;;;;;7.37;4.60;;;7.50;99.20;7.50;101136.00;;;;4879930;28;88326;-66
2024/03/19 07:52:34;;;;;;;5.70;4.20;;;7.60;96.90;7.50;101138.00;;;;4880353;28;88927;-66
2024/03/19 07:55:00;;;;;;;8.80;5.17;;;7.60;95.80;7.60;101140.00;;;;4879889;28;108820;-66
2024/03/19 07:57:27;;;;;;;7.30;5.43;;;7.70;94.90;7.60;101140.00;;;;4878161;28;88296;-65
2024/03/19 07:59:52;;;;;;;6.90;4.63;;;7.70;93.20;7.60;101141.00;;;;4880214;28;99315;-65
2024/03/19 08:02:19;;;;;;;5.20;3.97;;;7.70;92.60;7.60;101141.00;;;;4885544;28;87902;-66
2024/03/19 08:04:50;;;;;;;10.27;4.70;;;7.70;92.00;7.60;101147.00;;;;4878277;28;88845;-65
2024/03/19 08:07:17;;;;;;;5.43;3.93;;;7.70;91.60;7.60;101157.00;;;;4877301;28;87884;-66
2024/03/19 08:09:43;;;;;;;4.93;4.00;;;7.80;91.20;7.70;101155.00;;;;4878178;28;99607;-66
2024/03/19 08:12:08;;;;;;;5.93;4.17;;;8.00;91.60;7.90;101151.00;;;;4879900;28;110076;-66
2024/03/19 08:14:34;;;;;;;7.57;4.03;;;8.10;90.30;8.00;101146.00;;;;4883129;28;116149;-66
2024/03/19 08:17:00;;;;;;;7.60;4.87;;;8.10;90.10;8.10;101146.00;;;;4878047;28;88946;-66
2024/03/19 08:19:26;;;;;;;10.33;5.00;;;8.20;88.20;8.10;101149.00;;;;4881548;28;88003;-65
2024/03/19 08:21:53;;;;;;;6.33;4.67;;;8.20;88.00;8.20;101147.00;;;;4881981;28;89089;-65
2024/03/19 08:24:19;;;;;;;7.63;4.87;;;8.30;84.20;8.10;101149.00;;;;4880410;28;87888;-66
2024/03/19 08:26:44;;;;;;;5.50;3.73;;;9.30;84.20;8.00;101144.00;;;;4874293;28;110615;-65
2024/03/19 08:29:11;;;;;;;6.07;3.40;;;8.20;85.00;8.20;101137.00;;;;4879922;28;109283;-65
2024/03/19 08:31:38;;;;;;;6.30;4.70;;;8.30;84.50;8.20;101141.00;;;;4882280;28;88613;-65
2024/03/19 08:34:04;;;;;;;6.20;4.23;;;8.40;84.50;8.40;101147.00;;;;4886005;28;109837;-65
2024/03/19 08:36:32;;;;;;;8.20;4.63;;;8.50;85.20;8.70;101150.00;;;;4880982;28;101203;-65
2024/03/19 08:38:58;;;;;;;6.57;4.40;;;8.70;86.00;9.00;101158.00;;;;4886674;28;87792;-66
2024/03/19 08:41:24;;;;;;;5.03;3.80;;;9.00;82.40;9.10;101162.00;;;;4878189;28;109333;-66
2024/03/19 08:43:51;;;;;;;6.20;4.37;;;9.10;82.60;9.30;101158.00;;;;4879946;28;118836;-66
2024/03/19 08:46:20;;;;;;;7.37;3.87;;;9.40;80.50;9.40;101164.00;;;;4879765;28;87892;-64
2024/03/19 08:48:49;;;;;;;5.87;3.87;;;9.50;79.60;9.60;101173.00;;;;4887006;28;87755;-65
2024/03/19 08:51:15;;;;;;;6.80;4.60;;;9.60;79.40;9.70;101172.00;;;;4883737;28;116751;-64
2024/03/19 08:53:45;;;;;;;4.00;3.23;;;9.70;78.00;9.90;101169.00;;;;4884665;28;87854;-64
2024/03/19 08:56:10;;;;;;;4.50;3.67;;;9.90;79.30;10.30;101164.00;;;;4882493;28;87810;-64
2024/03/19 08:58:37;;;;;;;4.20;3.77;;;10.20;77.60;10.60;101173.00;;;;4879044;28;108252;-64
2024/03/19 09:01:03;;;;;;;9.37;4.17;;;10.50;78.70;11.00;101177.00;;;;4880457;28;88550;-65
2024/03/19 09:03:29;;;;;;;6.07;4.03;;;10.90;78.70;11.40;101177.00;;;;4882944;28;101109;-64
2024/03/19 09:06:00;;;;;;;7.77;4.53;;;11.30;78.30;11.70;101182.00;;;;4876638;28;109228;-64
2024/03/19 09:08:26;;;;;;;8.73;4.80;;;11.60;76.40;11.80;101177.00;;;;4879885;28;88851;-65
2024/03/19 09:10:53;;;;;;;5.43;4.13;;;11.80;68.80;11.60;101189.00;;;;4879545;28;107974;-66
2024/03/19 09:13:20;;;;;;;4.73;3.73;;;11.70;68.10;11.30;101182.00;;;;4879564;28;109550;-66
2024/03/19 09:15:46;;;;;;;5.70;4.17;;;11.60;68.10;11.30;101188.00;;;;4882338;28;87793;-66
2024/03/19 09:18:15;;;;;;;8.13;3.87;;;11.50;67.70;11.50;101184.00;;;;4881933;28;87814;-65
2024/03/19 09:20:42;;;;;;;6.03;4.20;;;11.60;66.60;11.40;101188.00;;;;4882484;28;87970;-65
2024/03/19 09:23:08;;;;;;;7.00;3.90;;;11.60;66.90;11.60;101189.00;;;;4880532;28;88669;-63
2024/03/19 09:25:34;;;;;;;3.43;2.87;;;11.60;66.20;11.60;101189.00;;;;4875069;28;88013;-64
2024/03/19 09:28:01;;;;;;;5.37;3.47;;;11.70;65.20;11.70;101185.00;;;;4880145;28;107952;-65
2024/03/19 09:30:26;;;;;;;5.33;3.13;;;11.80;65.00;12.00;101187.00;;;;4877018;28;89485;-66
2024/03/19 09:32:53;;;;;;;4.80;3.40;;;11.90;62.70;11.80;101191.00;;;;4877198;28;118453;-64
2024/03/19 09:35:19;;;;;;;5.37;3.30;;;11.80;60.90;11.40;101189.00;;;;4879057;28;88015;-66
2024/03/19 09:37:45;;;;;;;4.90;3.40;;;11.50;61.50;11.10;101189.00;;;;4879532;28;100514;-64
2024/03/19 09:40:11;;;;;;;6.43;4.70;;;11.30;62.00;11.00;101190.00;;;;4875829;28;89098;-64
2024/03/19 09:42:38;;;;;;;4.27;3.10;;;11.10;62.90;11.10;101186.00;;;;4880968;28;87921;-64
2024/03/19 09:45:06;;;;;;;5.57;3.33;;;11.00;63.20;11.40;101179.00;;;;4882657;28;109895;-64
2024/03/19 09:47:32;;;;;;;5.53;3.67;;;11.20;64.00;11.60;101186.00;;;;4884689;28;86886;-64
2024/03/19 09:50:00;;;;;;;6.93;4.67;;;11.40;63.00;11.70;101178.00;;;;4881031;28;93220;-63
2024/03/19 09:52:28;;;;;;;6.73;3.73;;;11.60;63.40;12.00;101178.00;;;;4877456;28;102736;-65
2024/03/19 09:54:55;;;;;;;6.47;3.70;;;11.80;62.90;12.30;101183.00;;;;4879579;28;88808;-64
2024/03/19 09:57:21;;;;;;;3.33;3.03;;;12.00;61.80;12.60;101188.00;;;;4879148;28;88319;-64
2024/03/19 09:59:48;;;;;;;4.07;3.37;;;12.20;61.40;12.70;101183.00;;;;4879281;28;89679;-64
2024/03/19 10:02:21;;;;;;;9.00;4.53;;;12.30;61.50;13.00;101182.00;;;;4881758;28;88432;-64
2024/03/19 10:04:48;;;;;;;4.97;3.77;;;12.60;61.90;12.90;101178.00;;;;4880355;28;89693;-64
2024/03/19 10:07:19;;;;;;;4.67;3.40;;;12.70;58.30;12.60;101180.00;;;;4880947;28;87774;-64
2024/03/19 10:09:51;;;;;;;4.27;3.00;;;12.50;58.40;12.80;101181.00;;;;4880267;28;88635;-63
2024/03/19 10:12:22;;;;;;;5.10;4.07;;;12.50;58.70;12.90;101176.00;;;;4879049;28;87926;-64
2024/03/19 10:14:48;;;;;;;8.73;3.73;;;12.60;59.20;13.00;101182.00;;;;4885760;28;87861;-65
2024/03/19 10:17:15;;;;;;;6.73;3.40;;;12.70;57.70;12.80;101179.00;;;;4880163;28;87768;-64
2024/03/19 10:19:41;;;;;;;8.50;3.63;;;12.70;57.70;13.00;101177.00;;;;4877280;28;89975;-64
2024/03/19 10:22:11;;;;;;;13.23;5.10;;;12.70;58.30;13.20;101181.00;;;;4878298;28;91747;-64
2024/03/19 10:24:37;;;;;;;9.77;3.97;;;12.90;57.40;13.30;101174.00;;;;4878900;28;87986;-65
2024/03/19 10:27:07;;;;;;;3.23;2.83;;;13.00;56.90;13.20;101172.00;;;;4880093;28;87687;-64
2024/03/19 10:29:34;;;;;;;5.23;2.70;;;13.00;56.00;13.00;101171.00;;;;4879598;28;87978;-64
2024/03/19 10:32:00;;;;;;;4.90;3.07;;;12.90;55.80;12.80;101166.00;;;;4878857;28;117216;-64
2024/03/19 10:34:25;;;;;;;4.23;3.47;;;12.70;56.40;12.70;101168.00;;;;4878247;28;109848;-63
2024/03/19 10:36:53;;;;;;;4.20;3.03;;;12.70;56.10;12.90;101161.00;;;;4877565;28;105853;-64
2024/03/19 10:39:22;;;;;;;5.77;3.33;;;12.70;56.90;13.30;101170.00;;;;4873364;28;110623;-64
2024/03/19 10:41:52;;;;;;;5.77;3.30;;;13.00;57.70;13.70;101180.00;;;;4877258;28;88494;-65